This is the latest recevied weather packets stored in our database for station/object EA5GK-10. If no packets are shown the sender has not sent any weather packets the latest 10 day(s).
| Time | Temp. | Humidity | Pressure | Rain* | Wind** | Luminosity | Snow |
|---|---|---|---|---|---|---|---|
| 1787572482 | 30.56° C | 50% | 1015.1 hPa | - | - | - | - |
| 1787571582 | 30° C | 51% | 1015.3 hPa | - | - | - | - |
| 1787570682 | 29.44° C | 51% | 1015.6 hPa | - | - | - | - |
| 1787569782 | 28.89° C | 53% | 1015.4 hPa | - | - | - | - |
| 1787568882 | 28.89° C | 52% | 1015.5 hPa | - | - | - | - |
| 1787567982 | 28.89° C | 52% | 1015.9 hPa | - | - | - | - |
| 1787567081 | 28.33° C | 53% | 1015.8 hPa | - | - | - | - |
| 1787566181 | 28.33° C | 54% | 1015.6 hPa | - | - | - | - |
| 1787565281 | 27.78° C | 55% | 1015.6 hPa | - | - | - | - |
| 1787564381 | 27.78° C | 56% | 1016.2 hPa | - | - | - | - |
| 1787563481 | 27.78° C | 57% | 1016.4 hPa | - | - | - | - |
| 1787562581 | 27.78° C | 55% | 1016.6 hPa | - | - | - | - |
| 1787561680 | 27.22° C | 57% | 1016.3 hPa | - | - | - | - |
| 1787560779 | 26.67° C | 60% | 1016.4 hPa | - | - | - | - |
| 1787559879 | 27.22° C | 57% | 1016.2 hPa | - | - | - | - |
| 1787558979 | 26.67° C | 59% | 1015.5 hPa | - | - | - | - |
| 1787558093 | 26.11° C | 59% | 1015.5 hPa | - | - | - | - |
| 1787557193 | 26.11° C | 60% | 1015.8 hPa | - | - | - | - |
| 1787556293 | 25.56° C | 60% | 1015.3 hPa | - | - | - | - |
| 1787555393 | 25.56° C | 59% | 1016.5 hPa | - | - | - | - |
| 1787554492 | 25.56° C | 60% | 1015.7 hPa | - | - | - | - |
| 1787553592 | 25.56° C | 60% | 1015.2 hPa | - | - | - | - |
| 1787552692 | 25.56° C | 60% | 1014.4 hPa | - | - | - | - |
| 1787551792 | 25.56° C | 59% | 1015.4 hPa | - | - | - | - |
| 1787550892 | 25.56° C | 60% | 1014.9 hPa | - | - | - | - |
* Rain since midnight (hover to see other rain measurements)
** Current wind speed in m/s (hover to see current wind gust speed)